Time;durP1;ratioP1;P1;durP2;ratioP2;P2;SDS_P1;SDS_P2;PMS_P1;PMS_P2;Temp;Humidity;BMP_temperature;BMP_pressure;BME280_temperature;BME280_humidity;BME280_pressure;Samples;Min_cycle;Max_cycle;Signal;HPM_P1;HPM_P2
2023/12/23 00:02:55;;;;;;;5.22;2.25;;;;;;;;;;6099047;29;20082;-83
2023/12/23 00:05:57;;;;;;;71.55;28.33;;;;;;;;;;6085517;29;20078;-82
2023/12/23 00:08:59;;;;;;;68.65;27.65;;;;;;;;;;6084123;29;20058;-81
2023/12/23 00:12:03;;;;;;;16.70;7.10;;;;;;;;;;6083534;29;20286;-82
2023/12/23 00:15:06;;;;;;;43.20;17.95;;;;;;;;;;6104862;29;20048;-81
2023/12/23 00:18:10;;;;;;;12.05;5.95;;;;;;;;;;6102572;29;20067;-80
2023/12/23 00:21:15;;;;;;;31.98;14.00;;;;;;;;;;6086010;29;20282;-81
2023/12/23 00:24:17;;;;;;;4.22;2.60;;;;;;;;;;6084733;29;20052;-82
2023/12/23 00:27:20;;;;;;;3.35;1.90;;;;;;;;;;6084948;29;20106;-82
2023/12/23 00:30:22;;;;;;;7.72;2.72;;;;;;;;;;6072408;29;20255;-82
2023/12/23 00:33:25;;;;;;;5.38;2.00;;;;;;;;;;6080337;29;20136;-82
2023/12/23 00:36:28;;;;;;;3.97;2.00;;;;;;;;;;6087888;29;20065;-83
2023/12/23 00:39:30;;;;;;;3.90;2.20;;;;;;;;;;6087614;29;20052;-83
2023/12/23 00:42:33;;;;;;;4.32;2.28;;;;;;;;;;6081582;29;20063;-83
2023/12/23 00:45:35;;;;;;;3.53;2.00;;;;;;;;;;6098146;29;20080;-82
2023/12/23 00:48:40;;;;;;;3.80;2.25;;;;;;;;;;6079932;29;20064;-82
2023/12/23 00:51:43;;;;;;;2.70;1.88;;;;;;;;;;6088343;29;20063;-83
2023/12/23 00:54:44;;;;;;;5.45;2.15;;;;;;;;;;6097849;29;20100;-82
2023/12/23 00:57:46;;;;;;;3.00;1.70;;;;;;;;;;6082611;29;20107;-81
2023/12/23 01:00:49;;;;;;;5.28;1.70;;;;;;;;;;6060780;29;20060;-83
2023/12/23 01:03:52;;;;;;;2.83;1.77;;;;;;;;;;6075104;29;20080;-83
2023/12/23 01:06:54;;;;;;;3.88;2.10;;;;;;;;;;6075823;29;20276;-83
2023/12/23 01:09:57;;;;;;;4.07;1.70;;;;;;;;;;6063302;29;20069;-83
2023/12/23 01:12:59;;;;;;;3.85;1.95;;;;;;;;;;6078510;29;20057;-83
2023/12/23 01:16:02;;;;;;;3.72;1.60;;;;;;;;;;6075590;29;20063;-84
2023/12/23 01:19:07;;;;;;;2.95;1.77;;;;;;;;;;6077022;29;20342;-84
2023/12/23 01:22:09;;;;;;;3.50;1.75;;;;;;;;;;6073668;29;20060;-84
2023/12/23 01:25:12;;;;;;;4.13;1.80;;;;;;;;;;6077358;29;20056;-83
2023/12/23 01:28:14;;;;;;;3.38;2.15;;;;;;;;;;6077221;29;20326;-83
2023/12/23 01:31:20;;;;;;;3.70;1.67;;;;;;;;;;6061028;29;20060;-83
2023/12/23 01:34:24;;;;;;;5.47;2.03;;;;;;;;;;6077761;29;20052;-84
2023/12/23 01:37:26;;;;;;;3.00;1.42;;;;;;;;;;6078428;29;20370;-83
2023/12/23 01:40:28;;;;;;;4.00;1.75;;;;;;;;;;6078261;29;20052;-83
2023/12/23 01:43:29;;;;;;;6.20;1.70;;;;;;;;;;6078182;29;20370;-84
2023/12/23 01:46:31;;;;;;;3.72;1.55;;;;;;;;;;6075992;29;20064;-83
2023/12/23 01:49:35;;;;;;;4.35;1.60;;;;;;;;;;6079009;29;20060;-83
2023/12/23 01:52:38;;;;;;;3.45;1.90;;;;;;;;;;6078631;29;20064;-82
2023/12/23 01:55:40;;;;;;;5.97;2.17;;;;;;;;;;6077977;29;20506;-83
2023/12/23 01:58:44;;;;;;;7.82;2.13;;;;;;;;;;6079334;29;20060;-83
2023/12/23 02:01:47;;;;;;;5.85;2.00;;;;;;;;;;6083595;29;20063;-83
2023/12/23 02:04:50;;;;;;;5.53;1.80;;;;;;;;;;6078221;29;20083;-82
2023/12/23 02:07:53;;;;;;;3.72;1.98;;;;;;;;;;6078587;29;20052;-83
2023/12/23 02:11:05;;;;;;;3.75;1.95;;;;;;;;;;6076702;29;20459;-80
2023/12/23 02:14:10;;;;;;;6.20;2.08;;;;;;;;;;6082901;29;20109;-81
2023/12/23 02:17:13;;;;;;;3.50;2.15;;;;;;;;;;6078257;29;20060;-81
2023/12/23 02:20:17;;;;;;;3.78;1.50;;;;;;;;;;6080376;29;20068;-83
2023/12/23 02:23:20;;;;;;;4.78;1.83;;;;;;;;;;6080060;29;20060;-84
2023/12/23 02:26:24;;;;;;;4.00;1.83;;;;;;;;;;6080836;29;20068;-81
2023/12/23 02:29:28;;;;;;;4.63;1.90;;;;;;;;;;6080778;29;20319;-81
2023/12/23 02:32:30;;;;;;;4.72;2.25;;;;;;;;;;6078322;29;20391;-81
2023/12/23 02:35:32;;;;;;;4.10;2.05;;;;;;;;;;6078885;29;20076;-81
2023/12/23 02:38:36;;;;;;;4.32;1.80;;;;;;;;;;6075670;29;20060;-83
2023/12/23 02:41:39;;;;;;;2.88;1.88;;;;;;;;;;6063645;29;20350;-82
2023/12/23 02:44:43;;;;;;;3.90;1.85;;;;;;;;;;6077880;29;20067;-84
2023/12/23 02:47:45;;;;;;;4.15;2.10;;;;;;;;;;6075938;29;20056;-83
2023/12/23 02:50:48;;;;;;;5.45;2.25;;;;;;;;;;6074499;29;20083;-83
2023/12/23 02:53:57;;;;;;;3.10;2.10;;;;;;;;;;6077611;29;20057;-84
2023/12/23 02:57:00;;;;;;;4.43;2.00;;;;;;;;;;6075820;29;20064;-83
2023/12/23 03:00:02;;;;;;;5.00;2.38;;;;;;;;;;6077589;29;20391;-83
2023/12/23 03:03:05;;;;;;;5.57;2.10;;;;;;;;;;6081791;29;20056;-82
2023/12/23 03:06:08;;;;;;;3.83;2.10;;;;;;;;;;6075526;29;20052;-83
2023/12/23 03:09:11;;;;;;;4.93;2.00;;;;;;;;;;6081792;29;20077;-82
2023/12/23 03:12:13;;;;;;;8.05;2.20;;;;;;;;;;6078730;29;20065;-83
2023/12/23 03:15:15;;;;;;;6.90;2.20;;;;;;;;;;6082559;29;20048;-84
2023/12/23 03:18:17;;;;;;;3.20;2.03;;;;;;;;;;6079195;29;20063;-82
2023/12/23 03:21:22;;;;;;;4.22;2.13;;;;;;;;;;6066563;29;20100;-82
2023/12/23 03:24:26;;;;;;;3.15;2.05;;;;;;;;;;6078954;29;20057;-82
2023/12/23 03:27:28;;;;;;;3.08;1.88;;;;;;;;;;6076490;29;20295;-82
2023/12/23 03:30:30;;;;;;;5.70;2.33;;;;;;;;;;6077195;29;20332;-82
2023/12/23 03:33:32;;;;;;;5.68;1.70;;;;;;;;;;6066983;29;20446;-81
2023/12/23 03:36:35;;;;;;;4.70;2.10;;;;;;;;;;6084101;29;20052;-81
2023/12/23 03:39:39;;;;;;;5.65;1.83;;;;;;;;;;6071125;29;20064;-82
2023/12/23 03:42:41;;;;;;;4.90;2.53;;;;;;;;;;6062044;29;20151;-81
2023/12/23 03:45:43;;;;;;;3.70;2.17;;;;;;;;;;6074755;29;20055;-79
2023/12/23 03:48:46;;;;;;;5.30;2.40;;;;;;;;;;6072841;29;20239;-82
2023/12/23 03:51:47;;;;;;;6.40;2.22;;;;;;;;;;6078239;29;20057;-81
2023/12/23 03:54:51;;;;;;;4.50;2.10;;;;;;;;;;6076409;29;20056;-82
2023/12/23 03:57:53;;;;;;;;;;;;;;;;;;6081164;29;20052;-81
2023/12/23 04:00:55;;;;;;;5.75;2.38;;;;;;;;;;6090422;29;19927;-81
2023/12/23 04:03:57;;;;;;;3.35;2.00;;;;;;;;;;6084491;29;20123;-81
2023/12/23 04:07:00;;;;;;;4.68;2.15;;;;;;;;;;6088475;29;20571;-81
2023/12/23 04:10:04;;;;;;;4.03;2.30;;;;;;;;;;6082689;29;20056;-81
2023/12/23 04:13:08;;;;;;;4.60;2.47;;;;;;;;;;6065605;29;20246;-81
2023/12/23 04:16:10;;;;;;;3.50;2.10;;;;;;;;;;6095854;29;20050;-80
2023/12/23 04:19:12;;;;;;;3.13;2.33;;;;;;;;;;6101834;29;20071;-81
2023/12/23 04:22:15;;;;;;;4.05;2.20;;;;;;;;;;6097803;29;20064;-81
2023/12/23 04:25:20;;;;;;;7.05;2.53;;;;;;;;;;6098429;29;20111;-82
2023/12/23 04:28:24;;;;;;;7.63;2.20;;;;;;;;;;6095277;29;20235;-81
2023/12/23 04:31:26;;;;;;;5.88;2.72;;;;;;;;;;6081262;29;20068;-80
2023/12/23 04:34:28;;;;;;;5.00;2.60;;;;;;;;;;6094252;29;20078;-81
2023/12/23 04:37:31;;;;;;;6.50;3.10;;;;;;;;;;6098722;29;20315;-81
2023/12/23 04:40:35;;;;;;;4.13;2.53;;;;;;;;;;6088692;29;20321;-82
2023/12/23 04:43:37;;;;;;;4.30;2.67;;;;;;;;;;6081890;29;20056;-83
2023/12/23 04:46:39;;;;;;;4.00;2.42;;;;;;;;;;6080888;28;20425;-82
2023/12/23 04:49:41;;;;;;;4.43;2.72;;;;;;;;;;6096641;29;20068;-81
2023/12/23 04:52:43;;;;;;;5.88;2.92;;;;;;;;;;6089893;29;20057;-84
2023/12/23 04:55:46;;;;;;;7.82;2.67;;;;;;;;;;6097230;29;20067;-82
2023/12/23 04:58:48;;;;;;;7.38;3.00;;;;;;;;;;6083640;29;20080;-83
2023/12/23 05:01:52;;;;;;;5.78;2.95;;;;;;;;;;6097900;29;20056;-83
2023/12/23 05:04:58;;;;;;;4.67;2.23;;;;;;;;;;6098189;29;20353;-85
2023/12/23 05:08:00;;;;;;;6.30;2.92;;;;;;;;;;6094302;29;20048;-82
2023/12/23 05:11:04;;;;;;;5.35;2.80;;;;;;;;;;6086859;29;20438;-84
2023/12/23 05:14:06;;;;;;;5.57;3.15;;;;;;;;;;6101273;29;20052;-84
2023/12/23 05:17:09;;;;;;;5.60;2.78;;;;;;;;;;6085420;29;20071;-84
2023/12/23 05:20:12;;;;;;;4.40;2.50;;;;;;;;;;6084879;29;20216;-84
2023/12/23 05:23:14;;;;;;;7.32;2.72;;;;;;;;;;6102459;29;20278;-84
2023/12/23 05:26:21;;;;;;;4.22;2.30;;;;;;;;;;6088673;29;20068;-84
2023/12/23 05:29:23;;;;;;;4.75;2.50;;;;;;;;;;6098926;29;20064;-83
2023/12/23 05:32:25;;;;;;;5.75;2.53;;;;;;;;;;6101360;29;20071;-83
2023/12/23 05:35:26;;;;;;;3.42;2.42;;;;;;;;;;6103112;29;20354;-83
2023/12/23 05:38:28;;;;;;;4.80;2.58;;;;;;;;;;6104628;29;20064;-83
2023/12/23 05:41:32;;;;;;;4.13;2.35;;;;;;;;;;6078204;29;20051;-83
2023/12/23 05:44:34;;;;;;;4.85;2.72;;;;;;;;;;6083161;29;20282;-83
2023/12/23 05:47:37;;;;;;;3.03;1.85;;;;;;;;;;6104531;29;20062;-81
2023/12/23 05:50:39;;;;;;;3.97;2.33;;;;;;;;;;6102845;29;20043;-83
2023/12/23 05:53:42;;;;;;;4.68;2.10;;;;;;;;;;6086882;29;20343;-82
2023/12/23 05:56:46;;;;;;;7.10;2.40;;;;;;;;;;6099734;29;20373;-81
2023/12/23 05:59:48;;;;;;;3.78;2.38;;;;;;;;;;6098847;29;20056;-82
2023/12/23 06:02:49;;;;;;;4.35;2.42;;;;;;;;;;6084676;29;20063;-81
2023/12/23 06:05:51;;;;;;;4.35;2.30;;;;;;;;;;6099192;29;20048;-82
2023/12/23 06:08:53;;;;;;;4.03;2.13;;;;;;;;;;6098551;29;20059;-82
2023/12/23 06:11:57;;;;;;;3.40;2.00;;;;;;;;;;6099851;29;20291;-82
2023/12/23 06:14:59;;;;;;;3.63;2.03;;;;;;;;;;6101493;29;20056;-83
2023/12/23 06:18:02;;;;;;;3.55;1.80;;;;;;;;;;6087726;29;20127;-82
2023/12/23 06:21:04;;;;;;;5.55;2.53;;;;;;;;;;6105332;29;20381;-81
2023/12/23 06:24:08;;;;;;;5.47;2.10;;;;;;;;;;6087858;29;20435;-81
2023/12/23 06:27:13;;;;;;;3.90;2.20;;;;;;;;;;6102564;29;20056;-80
2023/12/23 06:30:15;;;;;;;3.33;2.10;;;;;;;;;;6104199;29;20056;-81
2023/12/23 06:33:17;;;;;;;6.72;2.63;;;;;;;;;;6099032;29;20059;-81
2023/12/23 06:36:20;;;;;;;7.65;3.97;;;;;;;;;;6081740;29;20060;-81
2023/12/23 06:39:24;;;;;;;6.00;2.85;;;;;;;;;;6083462;29;20136;-82
2023/12/23 06:42:27;;;;;;;8.55;2.67;;;;;;;;;;6067987;29;20416;-82
2023/12/23 06:45:29;;;;;;;6.45;2.33;;;;;;;;;;6086668;29;20048;-82
2023/12/23 06:48:31;;;;;;;7.70;2.40;;;;;;;;;;6083059;29;20074;-82
2023/12/23 06:51:33;;;;;;;4.68;2.22;;;;;;;;;;6098425;29;20239;-82
2023/12/23 06:54:35;;;;;;;5.55;2.10;;;;;;;;;;6084783;29;20391;-81
2023/12/23 06:57:39;;;;;;;7.60;2.38;;;;;;;;;;6103152;29;20052;-81
2023/12/23 07:00:42;;;;;;;6.43;2.40;;;;;;;;;;6083450;29;20215;-83
2023/12/23 07:03:46;;;;;;;9.87;3.17;;;;;;;;;;6098968;29;20151;-85
2023/12/23 07:06:48;;;;;;;8.57;2.80;;;;;;;;;;6100838;29;20345;-86
2023/12/23 07:09:50;;;;;;;10.90;3.15;;;;;;;;;;6098736;29;20075;-83
2023/12/23 07:12:53;;;;;;;6.65;2.63;;;;;;;;;;6095975;29;20075;-89
2023/12/23 07:15:55;;;;;;;8.90;3.28;;;;;;;;;;6080124;29;20043;-84
2023/12/23 07:18:57;;;;;;;4.82;2.60;;;;;;;;;;6097920;29;20120;-83
2023/12/23 07:21:59;;;;;;;6.20;2.22;;;;;;;;;;6083617;29;20080;-83
2023/12/23 07:25:01;;;;;;;9.60;3.17;;;;;;;;;;6099406;29;20271;-84
2023/12/23 07:28:05;;;;;;;4.72;2.10;;;;;;;;;;6086813;29;20047;-83
2023/12/23 07:31:07;;;;;;;4.38;2.28;;;;;;;;;;6099763;29;20059;-84
2023/12/23 07:34:11;;;;;;;6.63;2.55;;;;;;;;;;6068960;29;20402;-84
2023/12/23 07:37:13;;;;;;;10.63;3.00;;;;;;;;;;6100149;29;20371;-83
2023/12/23 07:40:16;;;;;;;6.40;2.80;;;;;;;;;;6098068;29;20071;-83
2023/12/23 07:43:19;;;;;;;5.60;2.97;;;;;;;;;;6099726;29;20382;-82
2023/12/23 07:46:21;;;;;;;6.00;2.58;;;;;;;;;;6072978;29;20411;-82
2023/12/23 07:49:23;;;;;;;4.03;2.10;;;;;;;;;;6081560;29;20285;-88
2023/12/23 07:52:25;;;;;;;5.25;2.30;;;;;;;;;;6069993;29;20056;-88
2023/12/23 07:55:27;;;;;;;6.10;2.47;;;;;;;;;;6099206;29;20059;-89
2023/12/23 07:58:31;;;;;;;6.85;2.72;;;;;;;;;;6098763;29;20064;-91
2023/12/23 08:01:33;;;;;;;5.40;2.53;;;;;;;;;;6097354;29;20080;-86
2023/12/23 08:04:38;;;;;;;7.03;2.80;;;;;;;;;;6099086;29;20056;-91
2023/12/23 08:07:42;;;;;;;5.38;2.28;;;;;;;;;;6098913;29;20060;-92
2023/12/23 08:10:43;;;;;;;4.55;2.67;;;;;;;;;;6099125;29;20060;-93
2023/12/23 08:13:47;;;;;;;6.82;2.85;;;;;;;;;;6085022;29;20056;-82
2023/12/23 08:16:49;;;;;;;5.78;2.88;;;;;;;;;;6095032;29;20048;-81
2023/12/23 08:19:52;;;;;;;4.63;2.78;;;;;;;;;;6098132;29;20055;-82
2023/12/23 08:22:55;;;;;;;5.72;2.35;;;;;;;;;;6083439;28;20075;-81
2023/12/23 08:25:57;;;;;;;5.13;2.30;;;;;;;;;;6099245;29;20048;-84
2023/12/23 08:29:01;;;;;;;4.38;2.65;;;;;;;;;;6097142;29;20377;-84
2023/12/23 08:32:03;;;;;;;6.32;2.70;;;;;;;;;;6100578;29;20056;-84
2023/12/23 08:35:07;;;;;;;3.03;2.00;;;;;;;;;;6065930;29;20063;-84
2023/12/23 08:38:09;;;;;;;7.47;2.53;;;;;;;;;;6100507;29;20064;-84
2023/12/23 08:41:11;;;;;;;3.88;2.00;;;;;;;;;;6099645;29;20067;-83
2023/12/23 08:44:14;;;;;;;6.03;2.55;;;;;;;;;;6086408;29;20052;-82
2023/12/23 08:47:16;;;;;;;4.05;1.77;;;;;;;;;;6089400;29;20052;-83
2023/12/23 08:50:20;;;;;;;3.33;2.05;;;;;;;;;;6070683;29;20052;-84
2023/12/23 08:53:22;;;;;;;5.97;1.85;;;;;;;;;;6074333;29;20044;-85
2023/12/23 08:56:24;;;;;;;4.20;2.03;;;;;;;;;;6086492;29;20056;-83
2023/12/23 08:59:28;;;;;;;3.22;1.88;;;;;;;;;;6107304;29;20060;-83
2023/12/23 09:02:30;;;;;;;5.53;2.47;;;;;;;;;;6090183;29;20350;-83
2023/12/23 09:05:32;;;;;;;3.58;1.75;;;;;;;;;;6087821;29;20428;-83
2023/12/23 09:08:35;;;;;;;4.47;2.10;;;;;;;;;;6104259;29;20056;-82
2023/12/23 09:11:42;;;;;;;3.77;1.83;;;;;;;;;;6105360;29;20127;-82
2023/12/23 09:14:45;;;;;;;4.85;2.00;;;;;;;;;;6094082;29;20425;-85
2023/12/23 09:17:47;;;;;;;4.32;2.00;;;;;;;;;;6089251;29;20346;-84
2023/12/23 09:20:49;;;;;;;7.35;2.05;;;;;;;;;;6104788;29;20056;-83
2023/12/23 09:23:51;;;;;;;3.67;1.70;;;;;;;;;;6107286;29;20056;-83
2023/12/23 09:26:53;;;;;;;3.33;1.73;;;;;;;;;;6109609;29;20515;-83
2023/12/23 09:29:58;;;;;;;2.92;2.03;;;;;;;;;;6092824;29;20079;-83
2023/12/23 09:33:00;;;;;;;2.72;1.80;;;;;;;;;;6084240;29;20059;-84
2023/12/23 09:36:03;;;;;;;2.88;1.90;;;;;;;;;;6089176;29;20056;-83
2023/12/23 09:39:05;;;;;;;1.83;1.30;;;;;;;;;;6077694;29;20051;-84
2023/12/23 09:42:10;;;;;;;6.35;1.70;;;;;;;;;;6086919;29;20104;-84
2023/12/23 09:45:15;;;;;;;4.18;1.77;;;;;;;;;;6105528;29;20108;-84
2023/12/23 09:48:18;;;;;;;4.63;2.10;;;;;;;;;;6101410;29;20409;-83
2023/12/23 09:51:22;;;;;;;6.95;2.00;;;;;;;;;;6102128;29;20354;-84
2023/12/23 09:54:28;;;;;;;7.72;2.10;;;;;;;;;;6077488;29;20068;-84
2023/12/23 09:57:35;;;;;;;5.95;2.08;;;;;;;;;;6090736;29;20115;-84
2023/12/23 10:00:39;;;;;;;4.25;1.80;;;;;;;;;;6102223;29;20318;-82
2023/12/23 10:03:42;;;;;;;3.95;1.80;;;;;;;;;;6104175;29;20067;-83
2023/12/23 10:06:44;;;;;;;3.67;1.42;;;;;;;;;;6083376;29;20401;-82
2023/12/23 10:09:48;;;;;;;3.40;1.80;;;;;;;;;;6104265;29;20060;-83
2023/12/23 10:12:51;;;;;;;4.50;2.08;;;;;;;;;;6088774;29;20299;-81
2023/12/23 10:15:55;;;;;;;3.63;1.48;;;;;;;;;;6084100;29;20239;-81
2023/12/23 10:18:57;;;;;;;2.58;1.52;;;;;;;;;;6082155;29;20052;-81
2023/12/23 10:22:00;;;;;;;4.00;2.00;;;;;;;;;;6097024;29;20060;-82
2023/12/23 10:25:02;;;;;;;2.13;1.42;;;;;;;;;;6101039;29;20072;-83
2023/12/23 10:28:10;;;;;;;4.13;1.35;;;;;;;;;;6087709;29;20382;-82
2023/12/23 10:31:17;;;;;;;6.38;1.38;;;;;;;;;;6085410;29;20417;-82
2023/12/23 10:34:22;;;;;;;1.95;1.35;;;;;;;;;;6070584;29;20227;-82
2023/12/23 10:37:25;;;;;;;2.92;1.20;;;;;;;;;;6102608;29;20059;-82
2023/12/23 10:40:28;;;;;;;1.85;1.13;;;;;;;;;;6083774;29;20068;-82
2023/12/23 10:43:30;;;;;;;2.63;1.20;;;;;;;;;;6102360;29;20056;-82
2023/12/23 10:46:34;;;;;;;2.45;1.52;;;;;;;;;;6100080;29;20064;-84
2023/12/23 10:49:37;;;;;;;2.85;1.40;;;;;;;;;;6091477;29;20128;-83
2023/12/23 10:52:40;;;;;;;6.50;2.28;;;;;;;;;;6082505;29;20059;-82
2023/12/23 10:55:42;;;;;;;4.43;1.77;;;;;;;;;;6082510;29;20056;-82
2023/12/23 10:58:44;;;;;;;4.57;1.70;;;;;;;;;;6097333;29;20086;-83
2023/12/23 11:01:48;;;;;;;3.30;1.45;;;;;;;;;;6097780;29;20044;-83
2023/12/23 11:04:51;;;;;;;5.28;1.90;;;;;;;;;;6083818;29;20051;-83
2023/12/23 11:07:55;;;;;;;3.00;1.67;;;;;;;;;;6103081;29;20060;-82
2023/12/23 11:10:57;;;;;;;;;;;;;;;;;;6096375;29;20056;-83
2023/12/23 11:13:59;;;;;;;3.13;1.70;;;;;;;;;;6100314;29;19927;-82
2023/12/23 11:17:03;;;;;;;2.40;1.40;;;;;;;;;;6082236;29;20055;-82
2023/12/23 11:20:06;;;;;;;;;;;;;;;;;;6077664;29;20232;-83
2023/12/23 11:23:31;;;;;;;5.03;1.70;;;;;;;;;;6099166;29;20235;-82
2023/12/23 11:26:43;;;;;;;2.72;1.50;;;;;;;;;;6083180;29;20056;-83
2023/12/23 11:29:45;;;;;;;4.75;2.13;;;;;;;;;;6097878;29;20058;-84
2023/12/23 11:32:51;;;;;;;3.65;1.77;;;;;;;;;;6081782;29;20067;-83
2023/12/23 11:35:54;;;;;;;4.68;2.20;;;;;;;;;;6087900;29;20048;-84
2023/12/23 11:38:57;;;;;;;3.80;1.73;;;;;;;;;;6100569;29;20386;-83
2023/12/23 11:42:01;;;;;;;6.10;2.10;;;;;;;;;;6098145;29;20055;-83
2023/12/23 11:45:04;;;;;;;3.58;1.92;;;;;;;;;;6077128;29;20111;-92
2023/12/23 11:48:10;;;;;;;3.75;1.90;;;;;;;;;;6081749;29;20051;-95
2023/12/23 11:51:12;;;;;;;4.05;1.92;;;;;;;;;;6109627;29;20100;-95
2023/12/23 11:54:15;;;;;;;3.47;2.33;;;;;;;;;;6087995;29;20107;-95
2023/12/23 11:57:17;;;;;;;4.15;2.40;;;;;;;;;;6106389;29;20052;-94
2023/12/23 12:00:20;;;;;;;4.20;2.10;;;;;;;;;;6067839;29;20060;-93
2023/12/23 12:03:27;;;;;;;3.17;2.10;;;;;;;;;;6082091;29;20052;-94
2023/12/23 12:06:30;;;;;;;3.90;2.40;;;;;;;;;;6080065;29;20056;-92
2023/12/23 12:09:34;;;;;;;4.75;2.38;;;;;;;;;;6078946;29;20054;-93
2023/12/23 12:12:39;;;;;;;4.25;2.13;;;;;;;;;;6076498;29;20100;-91
2023/12/23 12:15:42;;;;;;;3.25;2.22;;;;;;;;;;6074350;29;20083;-92
2023/12/23 12:18:46;;;;;;;6.55;2.60;;;;;;;;;;6076893;29;20055;-94
2023/12/23 12:21:48;;;;;;;2.53;2.20;;;;;;;;;;6075911;29;20061;-93
2023/12/23 12:24:51;;;;;;;3.42;2.40;;;;;;;;;;6087770;29;20079;-90
2023/12/23 12:27:53;;;;;;;4.82;2.58;;;;;;;;;;6080838;29;20044;-95
2023/12/23 12:30:56;;;;;;;6.88;2.58;;;;;;;;;;6061086;29;20067;-95
2023/12/23 12:33:59;;;;;;;4.78;2.17;;;;;;;;;;6081234;29;20052;-91
2023/12/23 12:37:02;;;;;;;3.83;2.00;;;;;;;;;;6078589;29;20097;-88
2023/12/23 12:40:05;;;;;;;5.82;2.67;;;;;;;;;;6091511;29;20109;-88
2023/12/23 12:43:07;;;;;;;6.80;2.67;;;;;;;;;;6080130;29;20084;-89
2023/12/23 12:46:10;;;;;;;3.50;2.08;;;;;;;;;;6078280;29;20369;-88
2023/12/23 12:49:15;;;;;;;5.45;2.42;;;;;;;;;;6081325;29;20051;-87
2023/12/23 12:52:18;;;;;;;4.45;2.40;;;;;;;;;;6080489;29;20065;-94
2023/12/23 12:55:25;;;;;;;2.95;2.17;;;;;;;;;;6069884;29;20118;-91
2023/12/23 12:58:27;;;;;;;3.85;2.20;;;;;;;;;;6079706;29;20079;-92
2023/12/23 13:01:31;;;;;;;6.57;3.10;;;;;;;;;;6078789;29;20382;-92
2023/12/23 13:04:35;;;;;;;4.47;3.00;;;;;;;;;;6074079;29;20216;-90
2023/12/23 13:07:37;;;;;;;4.82;3.38;;;;;;;;;;6079004;29;20049;-90
2023/12/23 13:10:39;;;;;;;5.70;2.78;;;;;;;;;;6064928;29;20084;-91
2023/12/23 13:13:41;;;;;;;7.35;3.55;;;;;;;;;;6084915;29;20064;-92
2023/12/23 13:16:47;;;;;;;5.78;3.35;;;;;;;;;;6075233;29;20351;-89
2023/12/23 13:19:50;;;;;;;6.60;3.80;;;;;;;;;;6060385;29;20132;-88
2023/12/23 13:22:52;;;;;;;7.47;3.60;;;;;;;;;;6074221;29;20044;-90
2023/12/23 13:25:56;;;;;;;7.93;3.90;;;;;;;;;;6065913;29;20052;-91
2023/12/23 13:28:58;;;;;;;7.85;3.70;;;;;;;;;;6078083;29;20363;-91
2023/12/23 13:32:01;;;;;;;6.30;4.35;;;;;;;;;;6080660;28;20049;-91
2023/12/23 13:35:05;;;;;;;8.55;3.88;;;;;;;;;;6087559;29;20060;-92
2023/12/23 13:38:07;;;;;;;6.95;4.28;;;;;;;;;;6082017;29;20049;-93
2023/12/23 13:41:13;;;;;;;7.40;3.92;;;;;;;;;;6083894;29;20112;-89
2023/12/23 13:44:15;;;;;;;7.40;4.28;;;;;;;;;;6084806;29;20148;-90
2023/12/23 13:47:17;;;;;;;7.37;4.30;;;;;;;;;;6083392;29;20063;-91
2023/12/23 13:50:21;;;;;;;6.88;4.00;;;;;;;;;;6081026;29;20100;-93
2023/12/23 13:53:23;;;;;;;5.68;3.72;;;;;;;;;;6083477;29;20053;-91
2023/12/23 13:56:25;;;;;;;9.93;4.05;;;;;;;;;;6083800;29;20064;-93
2023/12/23 13:59:27;;;;;;;5.85;4.03;;;;;;;;;;6068863;29;20064;-92
2023/12/23 14:02:31;;;;;;;5.45;3.78;;;;;;;;;;6088063;29;20281;-92
2023/12/23 14:05:35;;;;;;;7.70;4.18;;;;;;;;;;6104644;28;20056;-93
2023/12/23 14:08:37;;;;;;;;;;;;;;;;;;6102371;29;20871;-93
2023/12/23 14:11:39;;;;;;;6.72;3.70;;;;;;;;;;6104995;29;20023;-96
2023/12/23 14:14:41;;;;;;;7.47;3.92;;;;;;;;;;6101858;29;20080;-94
2023/12/23 14:17:43;;;;;;;6.72;3.88;;;;;;;;;;6100000;29;20059;-93
2023/12/23 14:20:46;;;;;;;7.93;5.05;;;;;;;;;;6104090;29;20127;-94
2023/12/23 14:23:48;;;;;;;;;;;;;;;;;;6107696;29;20377;-92
2023/12/23 14:26:50;;;;;;;8.48;3.70;;;;;;;;;;6104869;29;19934;-94
2023/12/23 14:29:54;;;;;;;6.80;4.40;;;;;;;;;;6103747;29;20355;-93
2023/12/23 14:32:56;;;;;;;5.95;4.10;;;;;;;;;;6087269;29;20380;-94
2023/12/23 14:36:00;;;;;;;8.20;4.40;;;;;;;;;;6107054;29;20048;-95
2023/12/23 14:39:03;;;;;;;7.03;4.40;;;;;;;;;;6103463;29;20051;-93
2023/12/23 14:42:06;;;;;;;9.13;3.97;;;;;;;;;;6081572;29;20151;-91
2023/12/23 14:45:09;;;;;;;6.37;4.20;;;;;;;;;;6079648;29;20465;-93
2023/12/23 14:48:11;;;;;;;6.60;3.67;;;;;;;;;;6101885;29;20468;-93
2023/12/23 14:51:20;;;;;;;6.35;3.67;;;;;;;;;;6085411;29;20067;-92
2023/12/23 14:54:23;;;;;;;5.80;3.13;;;;;;;;;;6092942;29;20070;-91
2023/12/23 14:57:25;;;;;;;7.30;3.40;;;;;;;;;;6100841;29;20094;-93
2023/12/23 15:00:27;;;;;;;6.18;3.35;;;;;;;;;;6100825;29;20155;-95
2023/12/23 15:03:29;;;;;;;6.20;3.60;;;;;;;;;;6105923;29;20054;-93
2023/12/23 15:06:32;;;;;;;5.07;2.85;;;;;;;;;;6095560;29;20115;-96
2023/12/23 15:09:37;;;;;;;;;;;;;;;;;;6092734;29;20048;-96
2023/12/23 15:12:39;;;;;;;6.18;3.33;;;;;;;;;;6132176;23;19937;-85
2023/12/23 15:15:41;;;;;;;6.00;3.15;;;;;;;;;;6102096;29;20304;-87
2023/12/23 15:18:42;;;;;;;5.55;3.30;;;;;;;;;;6104158;29;20247;-86
2023/12/23 15:21:45;;;;;;;5.03;3.22;;;;;;;;;;6106789;29;20104;-86
2023/12/23 15:24:47;;;;;;;6.50;3.28;;;;;;;;;;6105566;29;20362;-86
2023/12/23 15:27:49;;;;;;;6.25;3.28;;;;;;;;;;6106238;29;20052;-88
2023/12/23 15:30:52;;;;;;;4.43;2.92;;;;;;;;;;6105567;29;20056;-87
2023/12/23 15:33:54;;;;;;;;;;;;;;;;;;6100971;29;20052;-87
2023/12/23 15:36:57;;;;;;;6.07;3.20;;;;;;;;;;6110952;29;19930;-87
2023/12/23 15:39:58;;;;;;;4.23;2.70;;;;;;;;;;6103744;29;20071;-87
2023/12/23 15:43:00;;;;;;;5.78;3.28;;;;;;;;;;6104936;29;20347;-87
2023/12/23 15:46:02;;;;;;;8.98;3.20;;;;;;;;;;6100634;29;20055;-86
2023/12/23 15:49:04;;;;;;;5.72;3.33;;;;;;;;;;6103288;29;20062;-87
2023/12/23 15:52:07;;;;;;;6.28;3.00;;;;;;;;;;6102175;29;20104;-88
2023/12/23 15:55:10;;;;;;;4.68;2.78;;;;;;;;;;6104926;29;20051;-86
2023/12/23 15:58:12;;;;;;;23.33;11.30;;;;;;;;;;6106831;29;20055;-87
2023/12/23 16:01:14;;;;;;;16.42;7.63;;;;;;;;;;6109981;29;20067;-88
2023/12/23 16:04:15;;;;;;;22.10;12.80;;;;;;;;;;6086801;29;20059;-84
2023/12/23 16:07:18;;;;;;;26.00;12.00;;;;;;;;;;6078034;29;20312;-86
2023/12/23 16:10:20;;;;;;;12.68;5.32;;;;;;;;;;6078777;29;20092;-88
2023/12/23 16:13:24;;;;;;;5.53;2.70;;;;;;;;;;6074167;29;20355;-87
2023/12/23 16:16:25;;;;;;;6.32;2.42;;;;;;;;;;6079767;29;20336;-88
2023/12/23 16:19:27;;;;;;;7.55;2.97;;;;;;;;;;6077421;29;20037;-90
2023/12/23 16:22:30;;;;;;;4.43;2.58;;;;;;;;;;6077102;29;20052;-87
2023/12/23 16:25:32;;;;;;;6.43;2.30;;;;;;;;;;6077815;29;20056;-87
2023/12/23 16:28:34;;;;;;;4.47;2.40;;;;;;;;;;6081150;29;20053;-87
2023/12/23 16:31:36;;;;;;;6.65;2.78;;;;;;;;;;6076010;29;20067;-85
2023/12/23 16:34:38;;;;;;;5.75;3.22;;;;;;;;;;6079241;29;20059;-87
2023/12/23 16:37:41;;;;;;;8.15;3.20;;;;;;;;;;6078653;29;20129;-88
2023/12/23 16:40:43;;;;;;;5.70;3.20;;;;;;;;;;6075199;29;20371;-87
2023/12/23 16:43:45;;;;;;;7.78;3.30;;;;;;;;;;6075330;29;20073;-90
2023/12/23 16:46:47;;;;;;;7.10;3.80;;;;;;;;;;6080210;29;20084;-87
2023/12/23 16:49:48;;;;;;;6.93;3.60;;;;;;;;;;6076460;29;20053;-90
2023/12/23 16:52:52;;;;;;;5.90;3.17;;;;;;;;;;6075747;29;20383;-86
2023/12/23 16:55:54;;;;;;;9.23;3.30;;;;;;;;;;6076852;29;20095;-87
2023/12/23 16:58:56;;;;;;;6.18;2.83;;;;;;;;;;6075257;29;20063;-87
2023/12/23 17:01:57;;;;;;;5.63;3.20;;;;;;;;;;6078149;29;20056;-88
2023/12/23 17:04:59;;;;;;;8.27;3.97;;;;;;;;;;6073472;29;20163;-87
2023/12/23 17:08:04;;;;;;;5.97;3.73;;;;;;;;;;6076985;29;20056;-87
2023/12/23 17:11:05;;;;;;;6.00;3.17;;;;;;;;;;6080976;29;20506;-88
2023/12/23 17:14:07;;;;;;;6.10;3.20;;;;;;;;;;6082157;29;20056;-88
2023/12/23 17:17:09;;;;;;;6.03;2.85;;;;;;;;;;6086636;29;20087;-88
2023/12/23 17:20:12;;;;;;;6.00;3.08;;;;;;;;;;6084728;29;20225;-88
2023/12/23 17:23:15;;;;;;;5.72;3.47;;;;;;;;;;6084188;29;20060;-85
2023/12/23 17:26:17;;;;;;;7.07;3.70;;;;;;;;;;6082985;29;20300;-88
2023/12/23 17:29:18;;;;;;;8.50;4.28;;;;;;;;;;6078184;29;20052;-87
2023/12/23 17:32:25;;;;;;;9.68;4.10;;;;;;;;;;6079949;29;20105;-87
2023/12/23 17:35:27;;;;;;;8.88;3.90;;;;;;;;;;6079709;29;20056;-86
2023/12/23 17:38:30;;;;;;;8.77;4.15;;;;;;;;;;6079431;29;20065;-87
2023/12/23 17:41:32;;;;;;;9.57;4.00;;;;;;;;;;6077698;29;20052;-87
2023/12/23 17:44:33;;;;;;;8.23;4.10;;;;;;;;;;6078678;29;20124;-86
2023/12/23 17:47:35;;;;;;;5.93;3.30;;;;;;;;;;6077744;29;20083;-88
2023/12/23 17:50:37;;;;;;;7.20;3.38;;;;;;;;;;6079930;29;20127;-88
2023/12/23 17:53:41;;;;;;;8.20;3.55;;;;;;;;;;6078750;29;20077;-86
2023/12/23 17:56:44;;;;;;;8.85;2.70;;;;;;;;;;6075907;29;20080;-87
2023/12/23 17:59:46;;;;;;;8.77;2.67;;;;;;;;;;6077331;29;20110;-87
2023/12/23 18:02:48;;;;;;;7.60;2.88;;;;;;;;;;6077106;29;20295;-88
2023/12/23 18:05:49;;;;;;;8.52;3.45;;;;;;;;;;6078186;29;20048;-87
2023/12/23 18:08:53;;;;;;;8.15;3.42;;;;;;;;;;6076725;29;20122;-87
2023/12/23 18:11:54;;;;;;;6.75;2.70;;;;;;;;;;6078113;29;20052;-87
2023/12/23 18:14:57;;;;;;;6.50;3.10;;;;;;;;;;6076044;29;20103;-87
2023/12/23 18:17:59;;;;;;;9.63;3.20;;;;;;;;;;6077155;29;20048;-87
2023/12/23 18:21:00;;;;;;;8.15;2.83;;;;;;;;;;6079654;29;20256;-87